Time;durP1;ratioP1;P1;durP2;ratioP2;P2;SDS_P1;SDS_P2;PMS_P1;PMS_P2;Temp;Humidity;BMP_temperature;BMP_pressure;BME280_temperature;BME280_humidity;BME280_pressure;Samples;Min_cycle;Max_cycle;Signal;HPM_P1;HPM_P2
2022/12/19 00:01:17;;;;;;;55.72;24.42;;;;;;;0.09;88.24;101834.22;5026501;28;20037;-67
2022/12/19 00:03:53;;;;;;;55.97;25.15;;;;;;;0.12;88.33;101832.69;5024837;28;20029;-67
2022/12/19 00:06:19;;;;;;;59.28;24.17;;;;;;;0.12;88.77;101834.34;5026529;28;20429;-67
2022/12/19 00:08:47;;;;;;;58.97;27.90;;;;;;;0.09;87.99;101831.66;5028505;28;20021;-67
2022/12/19 00:11:14;;;;;;;60.17;25.05;;;;;;;0.09;88.46;101834.22;5024445;28;20050;-67
2022/12/19 00:13:40;;;;;;;61.65;26.27;;;;;;;0.08;88.69;101837.56;5024447;28;20045;-66
2022/12/19 00:16:12;;;;;;;61.05;25.83;;;;;;;0.10;89.10;101830.88;5029540;28;20038;-67
2022/12/19 00:18:41;;;;;;;57.63;26.80;;;;;;;0.11;89.08;101813.16;5028543;28;20041;-67
2022/12/19 00:21:10;;;;;;;58.05;25.90;;;;;;;0.13;88.96;101833.56;5024548;28;20041;-69
2022/12/19 00:23:36;;;;;;;60.70;25.85;;;;;;;0.14;89.04;101836.19;5023483;28;20052;-67
2022/12/19 00:26:08;;;;;;;57.80;25.33;;;;;;;0.16;89.24;101843.91;5024167;28;20053;-67
2022/12/19 00:28:34;;;;;;;61.53;27.85;;;;;;;0.18;88.59;101820.28;5023862;28;20029;-66
2022/12/19 00:31:00;;;;;;;57.22;27.48;;;;;;;0.23;89.52;101818.00;5025011;28;20038;-67
2022/12/19 00:33:26;;;;;;;60.72;26.83;;;;;;;0.27;89.62;101803.75;5023147;28;20044;-67
2022/12/19 00:36:00;;;;;;;64.57;26.05;;;;;;;0.30;89.83;101794.59;5028904;28;20030;-68
2022/12/19 00:38:26;;;;;;;59.08;27.55;;;;;;;0.32;89.92;101787.06;5023596;28;20347;-67
2022/12/19 00:40:51;;;;;;;57.45;26.73;;;;;;;0.34;90.29;101780.38;5017849;28;20121;-68
2022/12/19 00:43:16;;;;;;;61.47;26.90;;;;;;;0.34;90.47;101776.16;5033835;28;20481;-68
2022/12/19 00:45:42;;;;;;;64.20;26.70;;;;;;;0.36;90.69;101779.66;5030308;28;20552;-69
2022/12/19 00:48:07;;;;;;;66.78;28.05;;;;;;;0.38;90.79;101782.28;5026237;28;20052;-68
2022/12/19 00:50:33;;;;;;;60.35;27.27;;;;;;;0.37;90.54;101773.78;5025169;28;20407;-68
2022/12/19 00:52:58;;;;;;;54.80;26.02;;;;;;;0.38;90.66;101762.78;5025156;28;20722;-67
2022/12/19 00:55:24;;;;;;;59.38;28.20;;;;;;;0.40;90.02;101768.84;5023649;28;20038;-67
2022/12/19 00:57:49;;;;;;;56.97;26.55;;;;;;;0.39;90.05;101767.09;5024312;28;20042;-67
2022/12/19 01:00:16;;;;;;;58.65;25.83;;;;;;;0.40;89.70;101771.38;5030045;28;20036;-67
2022/12/19 01:02:42;;;;;;;62.20;27.05;;;;;;;0.39;89.58;101762.00;5024098;28;20022;-68
2022/12/19 01:05:08;;;;;;;61.35;25.60;;;;;;;0.41;89.75;101757.84;5024383;28;20037;-68
2022/12/19 01:07:34;;;;;;;57.83;26.45;;;;;;;0.40;89.91;101763.75;5024567;28;20037;-67
2022/12/19 01:10:00;;;;;;;61.25;27.17;;;;;;;0.39;90.11;101762.00;5020283;28;20514;-68
2022/12/19 01:15:10;;;;;;;57.58;25.92;;;;;;;0.40;89.36;101757.78;5025998;28;20033;-67
2022/12/19 01:17:35;;;;;;;63.72;26.77;;;;;;;0.42;89.44;101767.22;5025292;28;20038;-67
2022/12/19 01:20:01;;;;;;;52.42;26.42;;;;;;;0.43;89.74;101757.94;5026666;28;20033;-67
2022/12/19 01:22:26;;;;;;;59.92;26.60;;;;;;;0.41;89.52;101742.59;5023453;28;20065;-66
2022/12/19 01:24:51;;;;;;;60.63;26.15;;;;;;;0.44;89.56;101739.34;5021961;28;20041;-68
2022/12/19 01:27:17;;;;;;;53.92;25.95;;;;;;;0.44;89.86;101727.47;5024175;28;20024;-67
2022/12/19 01:29:42;;;;;;;55.00;25.85;;;;;;;0.45;89.43;101733.44;5031168;28;20033;-66
2022/12/19 01:32:08;;;;;;;63.63;26.48;;;;;;;0.47;89.39;101732.69;5024896;28;20057;-67
2022/12/19 01:34:33;;;;;;;52.65;25.35;;;;;;;0.48;89.45;101726.84;5024243;28;20464;-68
2022/12/19 01:36:59;;;;;;;56.20;25.30;;;;;;;0.51;89.38;101744.78;5025215;28;20045;-66
2022/12/19 01:39:24;;;;;;;49.28;25.15;;;;;;;0.55;89.70;101750.88;5023428;28;20156;-67
2022/12/19 01:41:50;;;;;;;55.85;24.73;;;;;;;0.54;89.65;101749.13;5030627;28;20120;-68
2022/12/19 01:44:15;;;;;;;51.80;24.38;;;;;;;0.58;89.05;101740.84;5028365;28;20044;-68
2022/12/19 01:46:47;;;;;;;53.75;25.30;;;;;;;0.62;89.36;101745.28;5021489;28;20041;-68
2022/12/19 01:49:19;;;;;;;55.55;25.10;;;;;;;0.60;89.18;101727.41;5024885;28;20107;-67
2022/12/19 01:51:48;;;;;;;52.33;25.90;;;;;;;0.62;89.21;101732.56;5027494;28;20065;-68
2022/12/19 01:54:21;;;;;;;56.10;25.60;;;;;;;0.65;89.27;101735.25;5028069;28;20032;-68
2022/12/19 01:56:50;;;;;;;56.80;25.63;;;;;;;0.68;88.95;101727.75;5026194;28;20018;-68
2022/12/19 01:59:24;;;;;;;59.88;25.58;;;;;;;0.67;89.41;101728.56;5025325;28;20091;-68
2022/12/19 02:01:55;;;;;;;52.78;25.17;;;;;;;0.68;89.10;101732.84;5026972;28;20053;-68
2022/12/19 02:04:23;;;;;;;57.65;25.92;;;;;;;0.69;89.15;101724.41;5038688;28;20094;-68
2022/12/19 02:06:50;;;;;;;58.10;27.55;;;;;;;0.70;89.21;101716.88;5025268;28;20076;-68
2022/12/19 02:09:16;;;;;;;52.00;22.98;;;;;;;0.70;89.25;101714.31;5006859;28;20044;-68
2022/12/19 02:11:41;;;;;;;55.03;25.10;;;;;;;0.70;89.27;101714.31;5022770;28;20030;-68
2022/12/19 02:14:07;;;;;;;52.30;25.60;;;;;;;0.71;89.26;101708.41;5026572;28;20058;-68
2022/12/19 02:16:47;;;;;;;56.17;25.05;;;;;;;0.71;89.36;101710.09;5028492;28;20112;-68
2022/12/19 02:19:31;;;;;;;56.28;26.23;;;;;;;0.71;89.15;101713.50;5026576;28;20045;-68
2022/12/19 02:22:04;;;;;;;52.47;22.85;;;;;;;0.75;88.45;101706.88;5028555;28;20061;-69
2022/12/19 02:24:58;;;;;;;46.88;23.00;;;;;;;0.74;88.56;101697.50;5030217;28;20056;-68
2022/12/19 02:27:54;;;;;;;48.78;22.40;;;;;;;0.74;88.48;101685.66;5027394;28;20030;-68
2022/12/19 02:30:48;;;;;;;58.63;23.92;;;;;;;0.77;88.41;101666.25;5024874;28;20402;-69
2022/12/19 02:33:35;;;;;;;53.90;24.30;;;;;;;0.78;88.50;101680.72;5024837;28;20053;-68
2022/12/19 02:36:16;;;;;;;54.20;25.17;;;;;;;0.76;88.48;101669.59;5027033;28;20014;-68
2022/12/19 02:39:00;;;;;;;53.05;23.45;;;;;;;0.78;88.32;101660.34;5031706;28;20053;-68
2022/12/19 02:41:28;;;;;;;56.40;26.63;;;;;;;0.79;88.56;101651.94;5024570;28;20037;-68
2022/12/19 02:43:55;;;;;;;51.05;23.45;;;;;;;0.79;88.44;101650.25;5026906;28;20138;-69
2022/12/19 02:46:23;;;;;;;52.38;24.33;;;;;;;0.82;88.65;101654.59;5026823;28;20052;-68
2022/12/19 02:48:49;;;;;;;51.40;24.38;;;;;;;0.81;88.20;101646.09;5028654;28;20744;-68
2022/12/19 02:51:14;;;;;;;51.58;23.85;;;;;;;0.82;88.33;101646.97;5023021;28;20661;-69
2022/12/19 02:53:41;;;;;;;52.97;25.40;;;;;;;0.84;88.16;101647.91;5025973;28;20037;-69
2022/12/19 02:56:43;;;;;;;52.53;24.15;;;;;;;0.83;88.30;101647.03;5026742;28;20403;-69
2022/12/19 02:59:43;;;;;;;58.00;24.42;;;;;;;0.85;88.22;101642.91;5026491;28;20048;-70
2022/12/19 03:02:32;;;;;;;51.25;24.02;;;;;;;0.87;87.96;101648.91;5026932;28;20128;-69
2022/12/19 03:05:21;;;;;;;51.63;24.17;;;;;;;0.88;88.22;101652.34;5021364;28;20041;-68
2022/12/19 03:07:47;;;;;;;51.85;23.83;;;;;;;0.88;88.44;101643.03;5027891;28;20537;-70
2022/12/19 03:10:27;;;;;;;55.00;25.23;;;;;;;0.87;89.33;101641.28;5029589;28;20048;-69
2022/12/19 03:12:59;;;;;;;60.08;27.55;;;;;;;0.86;89.73;101634.44;5017766;28;20042;-70
2022/12/19 03:15:26;;;;;;;56.47;25.25;;;;;;;0.86;89.62;101634.44;5027341;28;20099;-70
2022/12/19 03:17:58;;;;;;;52.25;24.63;;;;;;;0.85;90.02;101635.25;5022792;28;20026;-69
2022/12/19 03:20:43;;;;;;;56.47;26.25;;;;;;;0.86;90.64;101634.44;5027125;28;20249;-69
2022/12/19 03:23:10;;;;;;;59.30;27.10;;;;;;;0.84;91.18;101635.19;5016381;28;20495;-69
2022/12/19 03:25:35;;;;;;;61.53;27.63;;;;;;;0.84;91.06;101623.34;5020621;28;20068;-70
2022/12/19 03:28:07;;;;;;;60.00;26.73;;;;;;;0.84;91.73;101609.72;5028853;28;20053;-70
2022/12/19 03:30:34;;;;;;;63.15;27.30;;;;;;;0.84;91.67;101610.59;5028981;28;20029;-70
2022/12/19 03:33:01;;;;;;;58.35;26.58;;;;;;;0.84;92.38;101612.28;5028877;28;20033;-71
2022/12/19 03:35:31;;;;;;;59.78;26.85;;;;;;;0.85;92.34;101608.94;5025147;28;20724;-70
2022/12/19 03:38:03;;;;;;;57.83;27.20;;;;;;;0.85;92.60;101607.28;5024572;28;20597;-70
2022/12/19 03:40:31;;;;;;;60.50;27.35;;;;;;;0.85;92.61;101598.75;5021325;28;20117;-70
2022/12/19 03:43:08;;;;;;;59.78;27.95;;;;;;;0.87;93.03;101595.47;5024759;28;20124;-70
2022/12/19 03:46:00;;;;;;;55.75;26.20;;;;;;;0.88;92.92;101597.22;5025223;28;20414;-70
2022/12/19 03:48:39;;;;;;;69.25;27.10;;;;;;;0.90;92.85;101592.19;5025011;28;20026;-71
2022/12/19 03:51:08;;;;;;;59.58;26.45;;;;;;;0.92;93.06;101585.47;5026905;28;20159;-69
2022/12/19 03:53:34;;;;;;;60.15;25.20;;;;;;;0.93;93.38;101590.66;5021278;28;20775;-70
2022/12/19 03:56:10;;;;;;;55.78;26.77;;;;;;;0.93;93.50;101585.56;5023808;28;20030;-70
2022/12/19 03:58:39;;;;;;;63.28;27.35;;;;;;;0.96;93.43;101595.88;5023072;28;20059;-70
2022/12/19 04:01:05;;;;;;;57.15;26.33;;;;;;;0.97;93.66;101592.53;5026921;28;20107;-71
2022/12/19 04:03:31;;;;;;;61.10;25.95;;;;;;;0.99;93.78;101580.75;5025036;28;20094;-70
2022/12/19 04:05:59;;;;;;;63.30;26.95;;;;;;;1.01;94.17;101584.22;5028630;28;20025;-70
2022/12/19 04:08:26;;;;;;;69.05;28.35;;;;;;;1.01;94.23;101586.75;5024545;28;20037;-70
2022/12/19 04:11:01;;;;;;;64.38;26.45;;;;;;;1.02;94.46;101574.91;5024950;28;20048;-70
2022/12/19 04:13:36;;;;;;;52.80;26.45;;;;;;;1.03;94.70;101574.97;5025420;28;20042;-70
2022/12/19 04:16:19;;;;;;;67.20;27.73;;;;;;;1.04;94.75;101563.97;5025479;28;20052;-70
2022/12/19 04:18:51;;;;;;;63.83;28.40;;;;;;;1.05;94.90;101555.53;5022061;28;20418;-70
2022/12/19 04:21:24;;;;;;;69.05;29.50;;;;;;;1.06;94.87;101562.34;5022878;28;20021;-71
2022/12/19 04:24:02;;;;;;;63.70;29.00;;;;;;;1.06;95.15;101564.91;5019828;28;20462;-71
2022/12/19 04:26:31;;;;;;;61.63;29.75;;;;;;;1.06;94.90;101559.81;5022240;28;20778;-71
2022/12/19 04:29:01;;;;;;;63.65;28.88;;;;;;;1.11;95.11;101565.09;5023317;28;20033;-71
2022/12/19 04:31:26;;;;;;;63.30;27.90;;;;;;;1.09;95.23;101556.56;5010403;28;20100;-70
2022/12/19 04:33:51;;;;;;;67.65;27.00;;;;;;;1.12;95.11;101560.06;5024701;28;20045;-71
2022/12/19 04:36:17;;;;;;;65.40;28.02;;;;;;;1.12;95.19;101567.69;5024893;28;20498;-70
2022/12/19 04:38:42;;;;;;;58.90;26.35;;;;;;;1.12;95.32;101562.63;5022216;28;20537;-71
2022/12/19 04:41:08;;;;;;;64.97;29.63;;;;;;;1.12;95.50;101575.34;5021562;28;20329;-71
2022/12/19 04:43:33;;;;;;;69.55;30.05;;;;;;;1.14;95.36;101577.97;5024571;28;20088;-71
2022/12/19 04:45:59;;;;;;;65.88;29.40;;;;;;;1.15;95.42;101577.19;5027402;28;20044;-70
2022/12/19 04:48:25;;;;;;;60.17;28.38;;;;;;;1.16;95.64;101576.34;5024131;28;20047;-69
2022/12/19 04:50:50;;;;;;;66.32;28.85;;;;;;;1.16;95.44;101572.13;5029837;28;20033;-70
2022/12/19 04:53:15;;;;;;;63.55;29.30;;;;;;;1.15;95.90;101567.84;5028099;28;20034;-70
2022/12/19 04:55:41;;;;;;;69.60;29.13;;;;;;;1.15;96.24;101577.19;5027566;28;20160;-69
2022/12/19 04:58:07;;;;;;;73.93;28.88;;;;;;;1.13;96.39;101568.59;5020465;28;20041;-70
2022/12/19 05:00:33;;;;;;;75.80;30.83;;;;;;;1.16;96.34;101564.50;5021434;28;20025;-70
2022/12/19 05:02:58;;;;;;;72.43;31.95;;;;;;;1.17;96.74;101560.28;5025473;28;20040;-70
2022/12/19 05:05:24;;;;;;;73.95;31.13;;;;;;;1.17;97.03;101542.44;5024694;28;20030;-70
2022/12/19 05:07:50;;;;;;;67.68;30.88;;;;;;;1.18;97.03;101550.13;5025424;28;20044;-70
2022/12/19 05:10:15;;;;;;;75.30;30.80;;;;;;;1.18;97.13;101545.06;5022310;28;20030;-70
2022/12/19 05:12:41;;;;;;;67.68;30.65;;;;;;;1.18;97.10;101542.50;5018476;28;20069;-70
2022/12/19 05:15:07;;;;;;;79.82;30.58;;;;;;;1.22;96.74;101543.50;5028446;28;20483;-71
2022/12/19 05:17:32;;;;;;;65.93;31.77;;;;;;;1.20;96.58;101548.56;5028159;28;20831;-70
2022/12/19 05:19:57;;;;;;;66.78;29.00;;;;;;;1.25;97.14;101543.63;5024170;28;20034;-70
2022/12/19 05:22:25;;;;;;;71.00;30.05;;;;;;;1.26;96.63;101550.47;5025725;28;20141;-71
2022/12/19 05:24:51;;;;;;;63.15;29.73;;;;;;;1.29;96.42;101548.94;5023605;28;20490;-70
2022/12/19 05:27:16;;;;;;;69.43;30.77;;;;;;;1.30;96.36;101547.25;5026324;28;20047;-71
2022/12/19 05:29:42;;;;;;;68.03;30.63;;;;;;;1.33;96.36;101552.44;5027674;28;20049;-71
2022/12/19 05:32:07;;;;;;;73.60;30.88;;;;;;;1.35;96.25;101543.22;5023182;28;20830;-71
2022/12/19 05:34:32;;;;;;;66.88;28.63;;;;;;;1.38;96.27;101540.78;5027775;28;20088;-71
2022/12/19 05:36:58;;;;;;;62.67;28.05;;;;;;;1.44;95.87;101540.16;5030536;28;20203;-71
2022/12/19 05:39:23;;;;;;;73.70;30.13;;;;;;;1.44;95.92;101540.16;5036705;28;20104;-71
2022/12/19 05:41:49;;;;;;;65.18;28.67;;;;;;;1.46;96.07;101531.78;5028719;28;20025;-72
2022/12/19 05:44:15;;;;;;;58.95;28.35;;;;;;;1.50;95.92;101536.19;5027958;28;20040;-70
2022/12/19 05:46:40;;;;;;;68.70;30.08;;;;;;;1.54;95.99;101539.75;5029764;28;20041;-71
2022/12/19 05:49:06;;;;;;;69.18;30.83;;;;;;;1.54;96.05;101543.13;5027348;28;20033;-71
2022/12/19 05:51:31;;;;;;;69.82;29.85;;;;;;;1.58;96.18;101537.38;5027508;28;20044;-71
2022/12/19 05:53:59;;;;;;;70.93;30.00;;;;;;;1.61;95.95;101536.63;5026411;28;20368;-71
2022/12/19 05:56:25;;;;;;;63.65;28.83;;;;;;;1.62;96.05;101554.53;5029454;28;20029;-71
2022/12/19 05:58:50;;;;;;;69.63;29.58;;;;;;;1.65;96.30;101549.56;5023161;28;20041;-71
2022/12/19 06:01:24;;;;;;;64.78;28.10;;;;;;;1.71;96.05;101546.38;5029287;28;20042;-72
2022/12/19 06:03:51;;;;;;;66.10;29.00;;;;;;;1.75;96.09;101550.75;5024143;28;20073;-71
2022/12/19 06:06:20;;;;;;;71.18;28.00;;;;;;;1.79;96.03;101550.97;5025873;28;20040;-71
2022/12/19 06:08:46;;;;;;;65.40;30.58;;;;;;;1.84;95.87;101546.91;5031337;28;20402;-71
2022/12/19 06:11:12;;;;;;;59.88;27.30;;;;;;;1.86;95.90;101564.81;5025163;28;20030;-72
2022/12/19 06:13:39;;;;;;;60.78;26.67;;;;;;;1.91;95.74;101557.34;5023603;28;20041;-72
2022/12/19 06:16:09;;;;;;;57.67;26.13;;;;;;;1.92;95.82;101549.75;5017127;28;20044;-71
2022/12/19 06:18:35;;;;;;;62.72;25.88;;;;;;;1.95;95.74;101544.78;5042352;28;20073;-71
2022/12/19 06:21:04;;;;;;;58.55;27.35;;;;;;;2.00;95.88;101562.78;5034636;28;20041;-70
2022/12/19 06:23:32;;;;;;;59.15;29.08;;;;;;;2.02;95.52;101556.94;5034398;28;20034;-71
2022/12/19 06:25:59;;;;;;;56.50;27.30;;;;;;;2.05;95.43;101568.94;5028402;28;20445;-71
2022/12/19 06:28:26;;;;;;;63.58;29.00;;;;;;;2.05;95.53;101561.28;5030020;28;20148;-71
2022/12/19 06:30:51;;;;;;;52.10;26.17;;;;;;;2.09;95.97;101556.38;5029359;28;20083;-70
2022/12/19 06:33:17;;;;;;;61.38;27.13;;;;;;;2.10;95.43;101563.19;5028594;28;20429;-72
2022/12/19 06:35:43;;;;;;;57.90;26.98;;;;;;;2.14;95.33;101554.84;5027065;28;20079;-70
2022/12/19 06:38:08;;;;;;;60.08;27.30;;;;;;;2.19;95.75;101568.63;5030718;28;20042;-72
2022/12/19 06:43:18;;;;;;;60.35;26.58;;;;;;;2.21;95.66;101569.59;5024740;28;20121;-71
2022/12/19 06:45:43;;;;;;;60.83;26.30;;;;;;;2.22;95.62;101558.56;5027937;28;20046;-71
2022/12/19 06:48:09;;;;;;;57.97;25.40;;;;;;;2.26;96.16;101559.53;5030994;28;20038;-71
2022/12/19 06:50:34;;;;;;;58.20;26.35;;;;;;;2.27;95.74;101551.09;5027273;28;20109;-72
2022/12/19 06:53:00;;;;;;;57.78;27.58;;;;;;;2.31;96.16;101566.56;5022684;28;20037;-70
2022/12/19 06:55:26;;;;;;;57.83;26.90;;;;;;;2.33;96.03;101577.72;5027730;28;20048;-71
2022/12/19 06:57:52;;;;;;;57.05;27.27;;;;;;;2.37;95.67;101563.34;5024854;28;20044;-71
2022/12/19 07:00:17;;;;;;;54.70;26.23;;;;;;;2.41;96.05;101555.00;5025369;28;20029;-72
2022/12/19 07:02:48;;;;;;;61.53;26.42;;;;;;;2.44;95.88;101555.13;5027327;28;20051;-71
2022/12/19 07:05:14;;;;;;;58.90;25.88;;;;;;;2.43;96.02;101556.81;5022749;28;20060;-71
2022/12/19 07:07:40;;;;;;;60.03;26.25;;;;;;;2.46;95.52;101557.75;5026667;28;20041;-71
2022/12/19 07:10:07;;;;;;;62.35;27.83;;;;;;;2.46;95.44;101555.22;5027421;28;20499;-71
2022/12/19 07:12:32;;;;;;;56.70;26.58;;;;;;;2.45;95.69;101561.09;5024557;28;20037;-70
2022/12/19 07:14:58;;;;;;;57.60;27.83;;;;;;;2.43;95.94;101568.69;5019804;28;20040;-70
2022/12/19 07:17:24;;;;;;;61.35;28.42;;;;;;;2.41;95.73;101570.31;5026331;28;20041;-70
2022/12/19 07:19:53;;;;;;;62.70;29.20;;;;;;;2.42;96.24;101569.53;5024514;28;20038;-70
2022/12/19 07:22:19;;;;;;;64.88;30.20;;;;;;;2.41;96.46;101567.78;5023825;28;20124;-70
2022/12/19 07:24:44;;;;;;;58.10;29.77;;;;;;;2.44;96.41;101578.09;5026099;28;20734;-70
2022/12/19 07:27:10;;;;;;;59.72;28.48;;;;;;;2.45;96.71;101576.41;5031238;28;20083;-69
2022/12/19 07:29:36;;;;;;;61.15;28.05;;;;;;;2.45;96.36;101572.19;5029857;28;20083;-70
2022/12/19 07:32:01;;;;;;;63.00;27.27;;;;;;;2.44;96.87;101580.66;5027036;28;20033;-69
2022/12/19 07:34:27;;;;;;;61.00;27.65;;;;;;;2.45;96.27;101597.69;5035002;28;20033;-70
2022/12/19 07:36:52;;;;;;;67.55;29.90;;;;;;;2.49;96.33;101602.09;5026614;28;20613;-69
2022/12/19 07:39:18;;;;;;;52.28;27.00;;;;;;;2.51;96.74;101592.81;5024508;28;20025;-69
2022/12/19 07:41:43;;;;;;;61.55;28.15;;;;;;;2.54;96.90;101586.97;5023762;28;20042;-69
2022/12/19 07:44:11;;;;;;;60.38;28.95;;;;;;;2.57;96.56;101584.53;5026379;28;20475;-70
2022/12/19 07:46:37;;;;;;;59.35;28.92;;;;;;;2.60;96.87;101585.50;5027268;28;20037;-69
2022/12/19 07:49:02;;;;;;;64.90;28.90;;;;;;;2.62;96.86;101586.44;5026381;28;20043;-68
2022/12/19 07:51:28;;;;;;;65.10;28.55;;;;;;;2.64;97.49;101582.25;5023730;28;20072;-69
2022/12/19 07:53:53;;;;;;;67.45;29.13;;;;;;;2.67;97.38;101579.78;5026196;28;20534;-71
2022/12/19 07:56:19;;;;;;;63.55;29.42;;;;;;;2.73;96.89;101576.59;5023911;28;20099;-69
2022/12/19 07:58:44;;;;;;;64.57;28.60;;;;;;;2.77;97.31;101578.44;5027995;28;20037;-70
2022/12/19 08:01:11;;;;;;;65.78;29.60;;;;;;;2.80;97.52;101586.22;5027501;28;20049;-69
2022/12/19 08:03:36;;;;;;;63.50;29.02;;;;;;;2.83;97.57;101582.09;5026109;28;20231;-67
2022/12/19 08:06:04;;;;;;;58.33;27.92;;;;;;;2.84;97.74;101583.84;5030491;28;20125;-67
2022/12/19 08:08:30;;;;;;;67.85;29.75;;;;;;;2.86;97.02;101578.78;5036661;28;20128;-66
2022/12/19 08:11:08;;;;;;;73.43;29.67;;;;;;;2.86;97.40;101572.00;5024737;28;20037;-66
2022/12/19 08:13:33;;;;;;;64.93;31.20;;;;;;;2.88;97.81;101577.13;5022123;28;20049;-66
2022/12/19 08:16:00;;;;;;;68.95;30.33;;;;;;;2.88;97.45;101579.69;5027716;28;20120;-66
2022/12/19 08:18:25;;;;;;;65.80;28.80;;;;;;;2.92;97.62;101572.22;5028031;28;20501;-66
2022/12/19 08:20:51;;;;;;;68.03;28.65;;;;;;;2.94;97.67;101569.69;5030784;28;20029;-66
2022/12/19 08:23:16;;;;;;;59.45;28.42;;;;;;;2.96;97.72;101552.78;5029478;28;20064;-66
2022/12/19 08:25:42;;;;;;;67.18;28.73;;;;;;;2.97;98.29;101560.47;5037679;28;20136;-66
2022/12/19 08:28:07;;;;;;;63.20;29.60;;;;;;;3.01;98.12;101561.44;5041032;28;20568;-66
2022/12/19 08:30:32;;;;;;;65.80;28.98;;;;;;;3.03;97.67;101554.69;5032535;28;20037;-66
2022/12/19 08:32:58;;;;;;;64.63;28.30;;;;;;;3.05;98.29;101557.31;5024793;28;20083;-66
2022/12/19 08:35:23;;;;;;;61.70;27.83;;;;;;;3.10;98.22;101558.34;5020897;28;20144;-66
2022/12/19 08:37:49;;;;;;;63.78;28.15;;;;;;;3.12;98.64;101562.69;5029440;28;20091;-66
2022/12/19 08:40:14;;;;;;;68.03;29.75;;;;;;;3.14;98.11;101561.03;5029995;28;20038;-66
2022/12/19 08:42:40;;;;;;;65.13;27.80;;;;;;;3.15;98.53;101561.91;5024631;28;20099;-66
2022/12/19 08:45:06;;;;;;;66.88;27.80;;;;;;;3.17;98.45;101567.97;5032809;28;20391;-66
2022/12/19 08:47:32;;;;;;;66.90;29.33;;;;;;;3.19;98.12;101568.88;5028868;28;20040;-66
2022/12/19 08:49:57;;;;;;;65.53;28.98;;;;;;;3.22;98.77;101574.09;5024543;28;20037;-66
2022/12/19 08:52:23;;;;;;;60.72;28.60;;;;;;;3.24;98.13;101580.09;5026701;28;20116;-66
2022/12/19 08:54:48;;;;;;;59.72;28.70;;;;;;;3.29;98.39;101584.53;5026612;28;20422;-66
2022/12/19 08:57:14;;;;;;;63.38;28.70;;;;;;;3.30;98.77;101578.63;5028977;28;20237;-66
2022/12/19 08:59:39;;;;;;;64.75;29.05;;;;;;;3.36;98.06;101575.41;5029704;28;20126;-66
2022/12/19 09:02:05;;;;;;;67.25;28.50;;;;;;;3.40;98.08;101577.25;5023912;28;20033;-66
2022/12/19 09:04:30;;;;;;;62.97;30.80;;;;;;;3.41;98.45;101576.41;5030194;28;20037;-66
2022/12/19 09:06:56;;;;;;;61.05;29.08;;;;;;;3.42;97.73;101573.94;5030215;28;20029;-66
2022/12/19 09:09:21;;;;;;;80.80;37.05;;;;;;;3.43;98.17;101578.25;5034765;28;20037;-65
2022/12/19 09:11:47;;;;;;;74.05;36.22;;;;;;;3.42;97.84;101565.41;5030660;28;20044;-66
2022/12/19 09:14:12;;;;;;;65.30;30.20;;;;;;;3.45;97.69;101568.06;5030311;28;20025;-66
2022/12/19 09:16:38;;;;;;;66.25;31.02;;;;;;;3.45;97.64;101558.69;5028033;28;20403;-66
2022/12/19 09:19:03;;;;;;;67.38;30.30;;;;;;;3.48;98.05;101556.25;5028431;28;20042;-67
2022/12/19 09:21:29;;;;;;;70.95;31.75;;;;;;;3.52;97.44;101552.09;5023520;28;20033;-67
2022/12/19 09:23:57;;;;;;;66.78;30.42;;;;;;;3.52;98.11;101554.66;5029384;28;20037;-66
2022/12/19 09:26:25;;;;;;;60.67;30.30;;;;;;;3.54;97.94;101560.69;5028848;28;20629;-66
2022/12/19 09:28:50;;;;;;;59.70;27.52;;;;;;;3.54;97.77;101555.56;5029254;28;20048;-66
2022/12/19 09:31:20;;;;;;;63.35;29.60;;;;;;;3.56;97.54;101553.94;5030769;28;20042;-66
2022/12/19 09:33:46;;;;;;;67.28;31.52;;;;;;;3.57;97.66;101552.25;5025936;28;20637;-66
2022/12/19 09:36:14;;;;;;;66.43;31.13;;;;;;;3.60;98.06;101552.34;5029782;28;20120;-65
2022/12/19 09:38:40;;;;;;;54.45;27.70;;;;;;;3.61;97.33;101539.63;5031636;28;20080;-66
2022/12/19 09:41:22;;;;;;;64.55;28.58;;;;;;;3.62;97.59;101533.66;5030311;28;20449;-66
2022/12/19 09:44:09;;;;;;;56.83;27.27;;;;;;;3.64;98.30;101538.84;5027582;28;20042;-66
2022/12/19 09:46:49;;;;;;;59.08;27.13;;;;;;;3.65;97.52;101536.31;5025653;28;20072;-67
2022/12/19 09:49:21;;;;;;;56.05;26.40;;;;;;;3.67;98.17;101529.59;5026227;28;20065;-66
2022/12/19 09:52:07;;;;;;;66.63;28.77;;;;;;;3.69;97.44;101521.97;5023970;28;20456;-66
2022/12/19 09:54:45;;;;;;;52.60;27.23;;;;;;;3.71;98.02;101527.97;5026697;28;20057;-66
2022/12/19 09:57:18;;;;;;;52.63;26.27;;;;;;;3.73;97.90;101511.91;5026542;28;20037;-66
2022/12/19 09:59:58;;;;;;;53.80;25.15;;;;;;;3.76;97.38;101512.00;5033801;28;20072;-66
2022/12/19 10:02:42;;;;;;;53.55;24.90;;;;;;;3.81;97.28;101540.25;5027530;28;20087;-66
2022/12/19 10:05:32;;;;;;;51.58;24.67;;;;;;;3.85;97.02;101534.41;5028884;28;20047;-66
2022/12/19 10:07:58;;;;;;;49.55;24.23;;;;;;;3.90;97.64;101533.72;5024425;28;20530;-66
2022/12/19 10:10:35;;;;;;;47.13;24.05;;;;;;;3.93;96.75;101530.38;5029102;28;20033;-65
2022/12/19 10:13:21;;;;;;;46.25;23.45;;;;;;;3.96;96.76;101527.94;5025586;28;20124;-65
2022/12/19 10:16:18;;;;;;;53.72;24.98;;;;;;;3.99;97.39;101525.47;5029576;28;20102;-66
2022/12/19 10:18:49;;;;;;;47.88;22.73;;;;;;;4.02;97.37;101535.78;5023151;28;20498;-66
2022/12/19 10:21:44;;;;;;;53.55;23.40;;;;;;;4.02;96.34;101539.22;5030072;28;20124;-66
2022/12/19 10:24:30;;;;;;;47.00;24.13;;;;;;;4.03;96.61;101527.31;5038976;28;20098;-66
2022/12/19 10:27:03;;;;;;;46.50;24.40;;;;;;;4.03;96.24;101530.69;5029315;28;20041;-65
2022/12/19 10:30:00;;;;;;;47.45;24.13;;;;;;;4.02;96.33;101531.53;5028708;28;20149;-65
2022/12/19 10:32:37;;;;;;;56.33;30.08;;;;;;;4.05;96.76;101535.88;5033594;28;20034;-66
2022/12/19 10:35:15;;;;;;;57.47;28.15;;;;;;;4.08;96.71;101547.09;5030838;28;20026;-65
2022/12/19 10:38:05;;;;;;;59.00;27.95;;;;;;;4.15;96.21;101530.19;5038239;28;20076;-65
2022/12/19 10:40:44;;;;;;;58.28;27.75;;;;;;;4.21;96.38;101527.81;5027939;28;20116;-66
2022/12/19 10:43:25;;;;;;;55.20;26.90;;;;;;;4.31;96.83;101516.16;5024491;28;20068;-66
2022/12/19 10:45:57;;;;;;;45.13;23.95;;;;;;;4.39;95.65;101518.13;5023152;28;20033;-66
2022/12/19 10:48:23;;;;;;;49.75;23.55;;;;;;;4.50;95.48;101514.19;5025073;28;20033;-67
2022/12/19 10:50:49;;;;;;;39.70;21.45;;;;;;;4.59;95.43;101516.13;5026203;28;20041;-64
2022/12/19 10:53:15;;;;;;;45.78;23.35;;;;;;;4.68;95.58;101520.63;5024450;28;20028;-64
2022/12/19 10:55:49;;;;;;;44.47;24.35;;;;;;;4.70;95.10;101512.16;5031398;28;20598;-65
2022/12/19 10:58:24;;;;;;;53.22;27.23;;;;;;;4.72;94.84;101520.75;5037812;28;20075;-63
2022/12/19 11:01:20;;;;;;;51.00;23.70;;;;;;;4.73;93.92;101498.56;5023217;28;20510;-64
2022/12/19 11:03:50;;;;;;;45.80;22.88;;;;;;;4.70;93.17;101506.19;5024565;28;20033;-64
2022/12/19 11:06:34;;;;;;;43.63;22.63;;;;;;;4.68;93.79;101515.50;5026612;28;20583;-64
2022/12/19 11:09:20;;;;;;;43.33;22.83;;;;;;;4.66;94.10;101506.09;5025953;28;20510;-64
2022/12/19 11:11:48;;;;;;;48.80;24.88;;;;;;;4.68;93.63;101509.56;5024996;28;20041;-64
2022/12/19 11:14:21;;;;;;;44.63;23.80;;;;;;;4.68;93.82;101500.16;5031570;28;20024;-64
2022/12/19 11:16:46;;;;;;;49.53;25.60;;;;;;;4.68;93.51;101503.59;5023769;28;20044;-64
2022/12/19 11:19:28;;;;;;;41.58;23.98;;;;;;;4.63;93.82;101511.13;5021717;28;20037;-64
2022/12/19 11:21:58;;;;;;;42.72;21.60;;;;;;;4.63;93.78;101511.13;5021314;28;20120;-64
2022/12/19 11:24:39;;;;;;;49.65;25.60;;;;;;;4.61;94.30;101499.13;5026965;28;20049;-65
2022/12/19 11:27:41;;;;;;;49.83;24.50;;;;;;;4.58;93.66;101505.03;5029409;28;20645;-65
2022/12/19 11:30:08;;;;;;;48.45;23.98;;;;;;;4.55;94.40;101497.25;5023409;28;20533;-66
2022/12/19 11:32:40;;;;;;;46.58;23.55;;;;;;;4.57;94.34;101495.59;5029054;28;20069;-66
2022/12/19 11:35:24;;;;;;;47.45;24.08;;;;;;;4.56;94.54;101504.13;5028969;28;20116;-66